sensor_id;sensor_type;location;lat;lon;timestamp;pressure;altitude;pressure_sealevel;temperature;humidity
73341;BME280;61578;52.002;5.468;2023-03-23T00:00:03;100190.59;;;12.98;83.33
73341;BME280;61578;52.002;5.468;2023-03-23T00:00:36;100180.84;;;12.87;83.16
73341;BME280;61578;52.002;5.468;2023-03-23T00:01:09;100191.69;;;12.95;83.85
73341;BME280;61578;52.002;5.468;2023-03-23T00:01:43;100180.47;;;12.92;83.60
73341;BME280;61578;52.002;5.468;2023-03-23T00:02:13;100187.94;;;12.98;82.91
73341;BME280;61578;52.002;5.468;2023-03-23T00:02:44;100182.59;;;12.98;82.96
73341;BME280;61578;52.002;5.468;2023-03-23T00:03:15;100191.19;;;13.01;82.83
73341;BME280;61578;52.002;5.468;2023-03-23T00:03:49;100198.22;;;13.02;82.98
73341;BME280;61578;52.002;5.468;2023-03-23T00:04:21;100193.84;;;13.01;83.30
73341;BME280;61578;52.002;5.468;2023-03-23T00:04:53;100178.66;;;12.92;83.13
73341;BME280;61578;52.002;5.468;2023-03-23T00:05:24;100167.91;;;12.82;83.10
73341;BME280;61578;52.002;5.468;2023-03-23T00:05:55;100191.56;;;12.97;83.55
73341;BME280;61578;52.002;5.468;2023-03-23T00:06:29;100191.56;;;12.97;83.09
73341;BME280;61578;52.002;5.468;2023-03-23T00:07:03;100197.03;;;12.95;83.18
73341;BME280;61578;52.002;5.468;2023-03-23T00:07:34;100192.66;;;12.94;82.82
73341;BME280;61578;52.002;5.468;2023-03-23T00:08:06;100181.16;;;12.94;82.89
73341;BME280;61578;52.002;5.468;2023-03-23T00:08:39;100116.94;;;12.55;82.37
73341;BME280;61578;52.002;5.468;2023-03-23T00:09:15;100191.44;;;12.98;82.58
73341;BME280;61578;52.002;5.468;2023-03-23T00:09:48;100179.41;;;13.04;82.17
73341;BME280;61578;52.002;5.468;2023-03-23T00:10:24;100183.75;;;13.05;81.81
73341;BME280;61578;52.002;5.468;2023-03-23T00:10:56;100179.41;;;13.04;82.10
73341;BME280;61578;52.002;5.468;2023-03-23T00:11:30;100179.03;;;13.08;81.77
73341;BME280;61578;52.002;5.468;2023-03-23T00:12:02;100175.28;;;13.11;81.70
73341;BME280;61578;52.002;5.468;2023-03-23T00:12:35;100165.44;;;13.11;81.75
73341;BME280;61578;52.002;5.468;2023-03-23T00:13:06;100176.81;;;13.13;81.27
73341;BME280;61578;52.002;5.468;2023-03-23T00:13:38;100170.66;;;13.13;81.38
73341;BME280;61578;52.002;5.468;2023-03-23T00:14:10;100166.44;;;13.10;80.98
73341;BME280;61578;52.002;5.468;2023-03-23T00:14:43;100173.91;;;13.16;81.14
73341;BME280;61578;52.002;5.468;2023-03-23T00:15:14;100173.31;;;13.13;81.29
73341;BME280;61578;52.002;5.468;2023-03-23T00:15:46;100166.06;;;13.15;80.81
73341;BME280;61578;52.002;5.468;2023-03-23T00:16:21;100152.97;;;13.12;80.62
73341;BME280;61578;52.002;5.468;2023-03-23T00:16:59;100172.56;;;13.22;80.49
73341;BME280;61578;52.002;5.468;2023-03-23T00:17:31;100170.88;;;13.21;80.60
73341;BME280;61578;52.002;5.468;2023-03-23T00:18:04;100181.66;;;13.19;80.88
73341;BME280;61578;52.002;5.468;2023-03-23T00:18:35;100181.19;;;13.14;81.17
73341;BME280;61578;52.002;5.468;2023-03-23T00:19:11;100187.38;;;13.15;81.13
73341;BME280;61578;52.002;5.468;2023-03-23T00:19:45;100180.56;;;13.22;80.87
73341;BME280;61578;52.002;5.468;2023-03-23T00:20:16;100184.19;;;13.21;80.75
73341;BME280;61578;52.002;5.468;2023-03-23T00:20:50;100174.75;;;13.17;80.91
73341;BME280;61578;52.002;5.468;2023-03-23T00:21:23;100171.97;;;13.18;80.69
73341;BME280;61578;52.002;5.468;2023-03-23T00:22:03;100180.94;;;13.17;80.72
73341;BME280;61578;52.002;5.468;2023-03-23T00:22:34;100179.38;;;13.15;80.71
73341;BME280;61578;52.002;5.468;2023-03-23T00:23:09;100186.28;;;13.17;80.61
73341;BME280;61578;52.002;5.468;2023-03-23T00:23:42;100170.91;;;13.10;80.97
73341;BME280;61578;52.002;5.468;2023-03-23T00:24:17;100172.22;;;13.15;81.25
73341;BME280;61578;52.002;5.468;2023-03-23T00:24:48;100172.94;;;13.17;80.89
73341;BME280;61578;52.002;5.468;2023-03-23T00:25:20;100165.78;;;13.18;80.75
73341;BME280;61578;52.002;5.468;2023-03-23T00:25:54;100165.78;;;13.18;81.34
73341;BME280;61578;52.002;5.468;2023-03-23T00:26:29;100171.97;;;13.18;80.51
73341;BME280;61578;52.002;5.468;2023-03-23T00:27:03;100170.88;;;13.21;80.21
73341;BME280;61578;52.002;5.468;2023-03-23T00:27:34;100143.75;;;13.16;80.87
73341;BME280;61578;52.002;5.468;2023-03-23T00:28:04;100157.94;;;13.16;80.88
73341;BME280;61578;52.002;5.468;2023-03-23T00:28:35;100156.63;;;13.11;81.30
73341;BME280;61578;52.002;5.468;2023-03-23T00:29:12;100154.53;;;13.14;81.48
73341;BME280;61578;52.002;5.468;2023-03-23T00:29:50;100153.81;;;13.12;81.32
73341;BME280;61578;52.002;5.468;2023-03-23T00:30:24;100150.31;;;13.12;81.39
73341;BME280;61578;52.002;5.468;2023-03-23T00:30:59;100140.75;;;13.09;81.35
73341;BME280;61578;52.002;5.468;2023-03-23T00:31:31;100126.41;;;13.01;81.66
73341;BME280;61578;52.002;5.468;2023-03-23T00:32:02;100150.56;;;13.09;81.64
73341;BME280;61578;52.002;5.468;2023-03-23T00:32:33;100142.44;;;13.10;81.88
73341;BME280;61578;52.002;5.468;2023-03-23T00:33:04;100150.44;;;13.10;81.23
73341;BME280;61578;52.002;5.468;2023-03-23T00:33:37;100147.78;;;13.10;81.52
73341;BME280;61578;52.002;5.468;2023-03-23T00:34:09;100132.22;;;12.95;82.12
73341;BME280;61578;52.002;5.468;2023-03-23T00:34:42;100138.47;;;13.05;81.77
73341;BME280;61578;52.002;5.468;2023-03-23T00:35:14;100136.50;;;13.07;82.26
73341;BME280;61578;52.002;5.468;2023-03-23T00:35:45;100139.59;;;13.02;82.00
73341;BME280;61578;52.002;5.468;2023-03-23T00:36:16;100117.03;;;12.85;81.85
73341;BME280;61578;52.002;5.468;2023-03-23T00:36:49;100147.44;;;13.04;82.50
73341;BME280;61578;52.002;5.468;2023-03-23T00:37:23;100121.97;;;12.90;82.20
73341;BME280;61578;52.002;5.468;2023-03-23T00:37:54;100136.47;;;12.97;82.08
73341;BME280;61578;52.002;5.468;2023-03-23T00:38:25;100114.50;;;12.84;82.33
73341;BME280;61578;52.002;5.468;2023-03-23T00:38:56;100142.63;;;12.98;82.19
73341;BME280;61578;52.002;5.468;2023-03-23T00:39:29;100142.50;;;12.99;82.08
73341;BME280;61578;52.002;5.468;2023-03-23T00:40:00;100105.66;;;12.83;82.23
73341;BME280;61578;52.002;5.468;2023-03-23T00:40:31;100143.22;;;13.01;82.14
73341;BME280;61578;52.002;5.468;2023-03-23T00:41:05;100133.25;;;13.03;81.72
73341;BME280;61578;52.002;5.468;2023-03-23T00:41:36;100137.78;;;13.03;81.71
73341;BME280;61578;52.002;5.468;2023-03-23T00:42:09;100143.78;;;13.05;80.92
73341;BME280;61578;52.002;5.468;2023-03-23T00:42:42;100133.13;;;13.05;81.07
73341;BME280;61578;52.002;5.468;2023-03-23T00:43:15;100142.69;;;13.07;81.17
73341;BME280;61578;52.002;5.468;2023-03-23T00:43:48;100119.13;;;13.03;81.14
73341;BME280;61578;52.002;5.468;2023-03-23T00:44:18;100140.63;;;13.11;81.24
73341;BME280;61578;52.002;5.468;2023-03-23T00:44:49;100119.69;;;13.06;81.21
73341;BME280;61578;52.002;5.468;2023-03-23T00:45:20;100138.22;;;13.08;80.74
73341;BME280;61578;52.002;5.468;2023-03-23T00:45:51;100129.78;;;13.03;80.77
73341;BME280;61578;52.002;5.468;2023-03-23T00:46:24;100131.44;;;13.04;80.58
73341;BME280;61578;52.002;5.468;2023-03-23T00:46:55;100142.44;;;13.10;80.97
73341;BME280;61578;52.002;5.468;2023-03-23T00:47:27;100139.78;;;13.10;81.09
73341;BME280;61578;52.002;5.468;2023-03-23T00:47:57;100130.22;;;13.08;80.90
73341;BME280;61578;52.002;5.468;2023-03-23T00:48:32;100135.53;;;13.08;81.40
73341;BME280;61578;52.002;5.468;2023-03-23T00:49:02;100131.44;;;13.04;81.59
73341;BME280;61578;52.002;5.468;2023-03-23T00:49:34;100135.78;;;13.05;81.47
73341;BME280;61578;52.002;5.468;2023-03-23T00:50:05;100130.47;;;13.05;81.18
73341;BME280;61578;52.002;5.468;2023-03-23T00:50:37;100137.25;;;13.09;80.58
73341;BME280;61578;52.002;5.468;2023-03-23T00:51:07;100124.75;;;13.09;80.86
73341;BME280;61578;52.002;5.468;2023-03-23T00:51:44;100093.50;;;12.90;80.82
73341;BME280;61578;52.002;5.468;2023-03-23T00:52:15;100127.75;;;13.16;80.08
73341;BME280;61578;52.002;5.468;2023-03-23T00:52:46;100117.22;;;13.14;79.98
73341;BME280;61578;52.002;5.468;2023-03-23T00:53:18;100126.78;;;13.17;79.83
73341;BME280;61578;52.002;5.468;2023-03-23T00:53:50;100122.31;;;13.17;79.58
73341;BME280;61578;52.002;5.468;2023-03-23T00:54:22;100112.16;;;13.11;79.91
73341;BME280;61578;52.002;5.468;2023-03-23T00:54:53;100112.84;;;13.13;80.00
73341;BME280;61578;52.002;5.468;2023-03-23T00:55:25;100115.66;;;13.12;79.71
73341;BME280;61578;52.002;5.468;2023-03-23T00:55:56;100113.13;;;13.10;80.48
73341;BME280;61578;52.002;5.468;2023-03-23T00:56:26;100116.50;;;13.12;80.20
73341;BME280;61578;52.002;5.468;2023-03-23T00:56:57;100118.44;;;13.10;80.12
73341;BME280;61578;52.002;5.468;2023-03-23T00:57:28;100115.91;;;13.09;80.16
73341;BME280;61578;52.002;5.468;2023-03-23T00:57:58;100104.66;;;13.05;80.12
73341;BME280;61578;52.002;5.468;2023-03-23T00:58:29;100110.47;;;13.10;80.59
73341;BME280;61578;52.002;5.468;2023-03-23T00:59:00;100103.56;;;13.08;79.95
73341;BME280;61578;52.002;5.468;2023-03-23T00:59:31;100105.13;;;13.10;80.35
73341;BME280;61578;52.002;5.468;2023-03-23T01:00:03;100111.31;;;13.11;80.08
73341;BME280;61578;52.002;5.468;2023-03-23T01:00:39;100107.28;;;13.16;79.71
73341;BME280;61578;52.002;5.468;2023-03-23T01:01:10;100092.78;;;13.09;79.86
73341;BME280;61578;52.002;5.468;2023-03-23T01:01:44;100094.34;;;13.12;80.14
73341;BME280;61578;52.002;5.468;2023-03-23T01:02:16;100064.34;;;12.89;79.95
73341;BME280;61578;52.002;5.468;2023-03-23T01:02:49;100094.72;;;13.07;79.97
73341;BME280;61578;52.002;5.468;2023-03-23T01:03:21;100099.06;;;13.08;80.20
73341;BME280;61578;52.002;5.468;2023-03-23T01:03:58;100093.88;;;13.07;80.50
73341;BME280;61578;52.002;5.468;2023-03-23T01:04:31;100064.47;;;12.87;79.98
73341;BME280;61578;52.002;5.468;2023-03-23T01:05:01;100093.16;;;13.05;80.08
73341;BME280;61578;52.002;5.468;2023-03-23T01:05:35;100102.97;;;13.04;80.39
73341;BME280;61578;52.002;5.468;2023-03-23T01:06:09;100104.34;;;12.99;81.05
73341;BME280;61578;52.002;5.468;2023-03-23T01:06:44;100093.81;;;12.97;80.49
73341;BME280;61578;52.002;5.468;2023-03-23T01:07:21;100085.41;;;12.92;80.35
73341;BME280;61578;52.002;5.468;2023-03-23T01:07:53;100074.41;;;12.85;80.23
73341;BME280;61578;52.002;5.468;2023-03-23T01:08:25;100076.94;;;12.87;80.31
73341;BME280;61578;52.002;5.468;2023-03-23T01:08:58;100095.78;;;12.95;80.15
73341;BME280;61578;52.002;5.468;2023-03-23T01:09:29;100109.44;;;13.02;80.30
73341;BME280;61578;52.002;5.468;2023-03-23T01:09:59;100108.84;;;12.98;80.11
73341;BME280;61578;52.002;5.468;2023-03-23T01:10:32;100082.66;;;12.82;79.76
73341;BME280;61578;52.002;5.468;2023-03-23T01:11:05;100108.72;;;13.00;80.31
73341;BME280;61578;52.002;5.468;2023-03-23T01:11:37;100104.59;;;12.96;79.70
73341;BME280;61578;52.002;5.468;2023-03-23T01:12:08;100085.66;;;12.89;79.48
73341;BME280;61578;52.002;5.468;2023-03-23T01:12:39;100088.19;;;12.90;79.74
73341;BME280;61578;52.002;5.468;2023-03-23T01:13:10;100112.94;;;13.02;79.55
73341;BME280;61578;52.002;5.468;2023-03-23T01:13:44;100120.94;;;13.02;79.48
73341;BME280;61578;52.002;5.468;2023-03-23T01:14:18;100111.81;;;13.05;79.20
73341;BME280;61578;52.002;5.468;2023-03-23T01:14:49;100106.59;;;13.03;78.76
73341;BME280;61578;52.002;5.468;2023-03-23T01:15:20;100108.31;;;13.04;79.13
73341;BME280;61578;52.002;5.468;2023-03-23T01:15:51;100109.16;;;13.05;79.09
73341;BME280;61578;52.002;5.468;2023-03-23T01:16:22;100112.66;;;13.05;79.20
73341;BME280;61578;52.002;5.468;2023-03-23T01:16:53;100101.44;;;13.02;78.84
73341;BME280;61578;52.002;5.468;2023-03-23T01:17:23;100104.78;;;13.04;79.05
73341;BME280;61578;52.002;5.468;2023-03-23T01:17:55;100111.13;;;13.03;79.45
73341;BME280;61578;52.002;5.468;2023-03-23T01:18:26;100106.31;;;12.97;79.90
73341;BME280;61578;52.002;5.468;2023-03-23T01:18:57;100105.31;;;12.98;79.29
73341;BME280;61578;52.002;5.468;2023-03-23T01:19:28;100109.69;;;12.99;79.17
73341;BME280;61578;52.002;5.468;2023-03-23T01:19:59;100107.88;;;12.99;79.00
73341;BME280;61578;52.002;5.468;2023-03-23T01:20:30;100115.44;;;13.04;79.17
73341;BME280;61578;52.002;5.468;2023-03-23T01:21:07;100109.28;;;13.03;79.54
73341;BME280;61578;52.002;5.468;2023-03-23T01:21:44;100104.34;;;12.99;78.99
73341;BME280;61578;52.002;5.468;2023-03-23T01:22:15;100110.28;;;13.02;79.21
73341;BME280;61578;52.002;5.468;2023-03-23T01:22:46;100089.59;;;12.95;78.95
73341;BME280;61578;52.002;5.468;2023-03-23T01:23:17;100092.31;;;13.04;78.75
73341;BME280;61578;52.002;5.468;2023-03-23T01:23:48;100099.19;;;13.07;78.43
73341;BME280;61578;52.002;5.468;2023-03-23T01:24:19;100073.53;;;13.06;78.63
73341;BME280;61578;52.002;5.468;2023-03-23T01:24:50;100085.63;;;13.10;78.78
73341;BME280;61578;52.002;5.468;2023-03-23T01:25:21;100083.94;;;13.09;79.02
73341;BME280;61578;52.002;5.468;2023-03-23T01:25:51;100091.09;;;13.08;79.24
73341;BME280;61578;52.002;5.468;2023-03-23T01:26:26;100061.13;;;12.95;78.87
73341;BME280;61578;52.002;5.468;2023-03-23T01:26:58;100043.41;;;12.84;79.05
73341;BME280;61578;52.002;5.468;2023-03-23T01:27:32;100072.56;;;13.07;78.42
73341;BME280;61578;52.002;5.468;2023-03-23T01:28:03;100079.56;;;13.08;78.37
73341;BME280;61578;52.002;5.468;2023-03-23T01:28:34;100083.94;;;13.09;78.63
73341;BME280;61578;52.002;5.468;2023-03-23T01:29:06;100062.16;;;13.04;79.09
73341;BME280;61578;52.002;5.468;2023-03-23T01:29:36;100047.84;;;13.05;78.80
73341;BME280;61578;52.002;5.468;2023-03-23T01:30:11;100071.19;;;13.12;78.87
73341;BME280;61578;52.002;5.468;2023-03-23T01:30:45;100065.88;;;13.12;78.64
73341;BME280;61578;52.002;5.468;2023-03-23T01:31:21;100079.91;;;13.14;78.51
73341;BME280;61578;52.002;5.468;2023-03-23T01:31:53;100062.69;;;12.98;78.69
73341;BME280;61578;52.002;5.468;2023-03-23T01:32:24;100090.56;;;13.14;78.81
73341;BME280;61578;52.002;5.468;2023-03-23T01:32:55;100093.38;;;13.13;79.20
73341;BME280;61578;52.002;5.468;2023-03-23T01:33:25;100091.94;;;13.09;78.59
73341;BME280;61578;52.002;5.468;2023-03-23T01:33:56;100089.84;;;13.12;79.14
73341;BME280;61578;52.002;5.468;2023-03-23T01:34:27;100060.28;;;12.95;79.06
73341;BME280;61578;52.002;5.468;2023-03-23T01:34:58;100078.47;;;13.10;79.34
73341;BME280;61578;52.002;5.468;2023-03-23T01:35:29;100070.88;;;13.06;79.46
73341;BME280;61578;52.002;5.468;2023-03-23T01:36:09;100076.78;;;13.09;78.99
73341;BME280;61578;52.002;5.468;2023-03-23T01:36:51;100039.44;;;13.00;78.79
73341;BME280;61578;52.002;5.468;2023-03-23T01:37:22;100061.50;;;13.11;78.63
73341;BME280;61578;52.002;5.468;2023-03-23T01:37:56;100067.31;;;13.16;79.25
73341;BME280;61578;52.002;5.468;2023-03-23T01:38:27;100069.13;;;13.16;79.00
73341;BME280;61578;52.002;5.468;2023-03-23T01:38:59;100038.53;;;12.89;79.31
73341;BME280;61578;52.002;5.468;2023-03-23T01:39:35;100082.69;;;13.13;79.76
73341;BME280;61578;52.002;5.468;2023-03-23T01:40:08;100085.50;;;13.11;79.89
73341;BME280;61578;52.002;5.468;2023-03-23T01:40:46;100047.75;;;12.85;79.51
73341;BME280;61578;52.002;5.468;2023-03-23T01:41:18;100078.72;;;13.07;80.19
73341;BME280;61578;52.002;5.468;2023-03-23T01:41:50;100068.75;;;13.00;80.13
73341;BME280;61578;52.002;5.468;2023-03-23T01:42:25;100049.19;;;12.89;79.52
73341;BME280;61578;52.002;5.468;2023-03-23T01:43:00;100078.31;;;13.02;79.53
73341;BME280;61578;52.002;5.468;2023-03-23T01:43:31;100077.16;;;13.05;80.04
73341;BME280;61578;52.002;5.468;2023-03-23T01:44:06;100076.47;;;13.03;80.06
73341;BME280;61578;52.002;5.468;2023-03-23T01:45:49;100088.16;;;13.11;79.25
73341;BME280;61578;52.002;5.468;2023-03-23T01:46:20;100084.66;;;13.11;79.50
73341;BME280;61578;52.002;5.468;2023-03-23T01:46:52;100067.22;;;13.07;79.33
73341;BME280;61578;52.002;5.468;2023-03-23T01:47:25;100081.00;;;13.12;79.33
73341;BME280;61578;52.002;5.468;2023-03-23T01:48:05;100078.72;;;13.07;79.48
73341;BME280;61578;52.002;5.468;2023-03-23T01:48:43;100076.91;;;13.08;79.95
73341;BME280;61578;52.002;5.468;2023-03-23T01:49:24;100048.78;;;12.94;79.62
73341;BME280;61578;52.002;5.468;2023-03-23T01:50:00;100083.69;;;13.12;79.83
73341;BME280;61578;52.002;5.468;2023-03-23T01:50:37;100062.16;;;13.04;79.85
73341;BME280;61578;52.002;5.468;2023-03-23T01:51:31;100078.59;;;13.09;79.98
73341;BME280;61578;52.002;5.468;2023-03-23T01:52:13;100068.91;;;13.08;80.14
73341;BME280;61578;52.002;5.468;2023-03-23T01:52:48;100064.97;;;13.02;79.97
73341;BME280;61578;52.002;5.468;2023-03-23T01:53:26;100035.03;;;12.89;79.69
73341;BME280;61578;52.002;5.468;2023-03-23T01:54:03;100063.84;;;13.05;79.57
73341;BME280;61578;52.002;5.468;2023-03-23T01:54:39;100070.03;;;13.05;79.91
73341;BME280;61578;52.002;5.468;2023-03-23T01:55:10;100041.63;;;12.95;79.69
73341;BME280;61578;52.002;5.468;2023-03-23T01:55:44;100066.38;;;13.06;79.57
73341;BME280;61578;52.002;5.468;2023-03-23T01:56:23;100041.06;;;12.91;79.62
73341;BME280;61578;52.002;5.468;2023-03-23T01:57:23;100066.97;;;13.10;79.53
73341;BME280;61578;52.002;5.468;2023-03-23T01:57:56;100074.13;;;13.09;79.86
73341;BME280;61578;52.002;5.468;2023-03-23T01:58:31;100063.72;;;13.06;79.94
73341;BME280;61578;52.002;5.468;2023-03-23T01:59:04;100079.56;;;13.08;79.85
73341;BME280;61578;52.002;5.468;2023-03-23T01:59:37;100077.28;;;13.03;80.35
73341;BME280;61578;52.002;5.468;2023-03-23T02:00:09;100059.31;;;12.96;80.26
73341;BME280;61578;52.002;5.468;2023-03-23T02:00:45;100072.38;;;12.99;80.66
73341;BME280;61578;52.002;5.468;2023-03-23T02:01:18;100066.22;;;12.98;80.43
73341;BME280;61578;52.002;5.468;2023-03-23T02:01:51;100064.63;;;12.96;80.51
73341;BME280;61578;52.002;5.468;2023-03-23T02:02:25;100069.00;;;12.97;80.38
73341;BME280;61578;52.002;5.468;2023-03-23T02:02:56;100059.19;;;12.97;80.39
73341;BME280;61578;52.002;5.468;2023-03-23T02:03:29;100066.06;;;13.00;80.08
73341;BME280;61578;52.002;5.468;2023-03-23T02:04:02;100054.09;;;12.94;80.54
73341;BME280;61578;52.002;5.468;2023-03-23T02:04:34;100053.97;;;12.96;80.00
73341;BME280;61578;52.002;5.468;2023-03-23T02:05:13;100038.78;;;12.86;80.18
73341;BME280;61578;52.002;5.468;2023-03-23T02:05:51;100059.66;;;13.02;79.58
73341;BME280;61578;52.002;5.468;2023-03-23T02:06:22;100054.56;;;12.99;79.80
73341;BME280;61578;52.002;5.468;2023-03-23T02:06:55;100059.06;;;12.99;80.21
73341;BME280;61578;52.002;5.468;2023-03-23T02:07:28;100060.66;;;13.11;79.48
73341;BME280;61578;52.002;5.468;2023-03-23T02:08:02;100058.38;;;13.06;79.78
73341;BME280;61578;52.002;5.468;2023-03-23T02:08:36;100046.44;;;13.01;80.11
73341;BME280;61578;52.002;5.468;2023-03-23T02:09:12;100055.16;;;13.03;80.00
73341;BME280;61578;52.002;5.468;2023-03-23T02:09:44;100057.66;;;13.04;80.22
73341;BME280;61578;52.002;5.468;2023-03-23T02:10:15;100053.47;;;13.02;80.18
73341;BME280;61578;52.002;5.468;2023-03-23T02:10:46;100056.81;;;13.04;80.15
73341;BME280;61578;52.002;5.468;2023-03-23T02:11:19;100051.38;;;13.05;80.00
73341;BME280;61578;52.002;5.468;2023-03-23T02:11:53;100054.16;;;13.04;80.23
73341;BME280;61578;52.002;5.468;2023-03-23T02:12:25;100058.50;;;13.05;80.10
73341;BME280;61578;52.002;5.468;2023-03-23T02:12:57;100049.38;;;12.98;80.18
73341;BME280;61578;52.002;5.468;2023-03-23T02:13:30;100043.31;;;12.96;80.25
73341;BME280;61578;52.002;5.468;2023-03-23T02:14:02;100051.78;;;13.01;80.19
73341;BME280;61578;52.002;5.468;2023-03-23T02:14:33;100052.63;;;13.01;79.91
73341;BME280;61578;52.002;5.468;2023-03-23T02:15:04;100058.38;;;13.06;80.24
73341;BME280;61578;52.002;5.468;2023-03-23T02:17:00;100055.00;;;13.04;80.39
73341;BME280;61578;52.002;5.468;2023-03-23T02:18:13;100066.63;;;13.03;80.60
73341;BME280;61578;52.002;5.468;2023-03-23T02:26:08;100063.84;;;13.05;80.42
73341;BME280;61578;52.002;5.468;2023-03-23T02:30:35;100057.38;;;12.98;80.92
73341;BME280;61578;52.002;5.468;2023-03-23T02:33:35;100058.63;;;13.03;81.10
73341;BME280;61578;52.002;5.468;2023-03-23T02:35:18;100065.22;;;12.99;81.15
73341;BME280;61578;52.002;5.468;2023-03-23T02:36:56;100033.03;;;12.81;80.60
73341;BME280;61578;52.002;5.468;2023-03-23T02:37:57;100063.97;;;13.03;80.20
73341;BME280;61578;52.002;5.468;2023-03-23T02:40:18;100038.00;;;12.96;79.84
73341;BME280;61578;52.002;5.468;2023-03-23T02:40:56;100075.44;;;13.15;80.18
73341;BME280;61578;52.002;5.468;2023-03-23T02:42:32;100072.13;;;13.22;79.57
73341;BME280;61578;52.002;5.468;2023-03-23T02:43:20;100057.22;;;13.20;79.95
73341;BME280;61578;52.002;5.468;2023-03-23T02:43:56;100059.03;;;13.19;79.54
73341;BME280;61578;52.002;5.468;2023-03-23T02:44:30;100061.28;;;13.24;79.39
73341;BME280;61578;52.002;5.468;2023-03-23T02:45:08;100029.66;;;13.10;79.85
73341;BME280;61578;52.002;5.468;2023-03-23T02:45:45;100051.63;;;13.23;79.35
73341;BME280;61578;52.002;5.468;2023-03-23T02:46:18;100064.66;;;13.26;78.97
73341;BME280;61578;52.002;5.468;2023-03-23T02:46:53;100053.28;;;13.24;79.50
73341;BME280;61578;52.002;5.468;2023-03-23T02:47:27;100031.34;;;13.11;79.66
73341;BME280;61578;52.002;5.468;2023-03-23T02:48:02;100028.94;;;13.08;79.60
73341;BME280;61578;52.002;5.468;2023-03-23T02:48:38;100057.78;;;13.23;79.31
73341;BME280;61578;52.002;5.468;2023-03-23T02:49:15;100045.16;;;13.25;78.89
73341;BME280;61578;52.002;5.468;2023-03-23T02:49:53;100048.53;;;13.27;79.32
73341;BME280;61578;52.002;5.468;2023-03-23T02:50:28;100044.06;;;13.28;79.02
73341;BME280;61578;52.002;5.468;2023-03-23T02:51:03;100052.06;;;13.28;79.14
73341;BME280;61578;52.002;5.468;2023-03-23T02:51:38;100047.97;;;13.24;79.14
73341;BME280;61578;52.002;5.468;2023-03-23T02:52:16;100049.13;;;13.31;78.79
73341;BME280;61578;52.002;5.468;2023-03-23T02:52:54;100050.81;;;13.32;78.96
73341;BME280;61578;52.002;5.468;2023-03-23T02:53:30;100047.44;;;13.30;78.58
73341;BME280;61578;52.002;5.468;2023-03-23T02:54:07;100046.19;;;13.34;78.57
73341;BME280;61578;52.002;5.468;2023-03-23T02:54:42;100053.06;;;13.37;78.94
73341;BME280;61578;52.002;5.468;2023-03-23T02:55:18;100052.09;;;13.38;78.57
73341;BME280;61578;52.002;5.468;2023-03-23T02:55:52;100042.97;;;13.31;78.48
73341;BME280;61578;52.002;5.468;2023-03-23T02:56:27;100042.66;;;13.34;78.63
73341;BME280;61578;52.002;5.468;2023-03-23T02:57:00;100041.84;;;13.33;78.92
73341;BME280;61578;52.002;5.468;2023-03-23T02:57:33;100051.38;;;13.36;78.67
73341;BME280;61578;52.002;5.468;2023-03-23T02:58:11;100054.88;;;13.36;78.79
73341;BME280;61578;52.002;5.468;2023-03-23T02:58:43;100023.97;;;13.24;78.50
73341;BME280;61578;52.002;5.468;2023-03-23T02:59:14;100053.53;;;13.42;78.35
73341;BME280;61578;52.002;5.468;2023-03-23T02:59:45;100041.41;;;13.28;78.73
73341;BME280;61578;52.002;5.468;2023-03-23T03:00:16;100049.00;;;13.33;78.71
73341;BME280;61578;52.002;5.468;2023-03-23T03:00:50;100050.53;;;13.35;78.63
73341;BME280;61578;52.002;5.468;2023-03-23T03:02:10;100051.50;;;13.34;78.55
73341;BME280;61578;52.002;5.468;2023-03-23T03:02:56;100055.59;;;13.38;78.20
73341;BME280;61578;52.002;5.468;2023-03-23T03:03:30;100060.53;;;13.43;78.15
73341;BME280;61578;52.002;5.468;2023-03-23T03:04:14;100059.16;;;13.48;77.47
73341;BME280;61578;52.002;5.468;2023-03-23T03:06:09;100056.50;;;13.58;77.35
73341;BME280;61578;52.002;5.468;2023-03-23T03:07:03;100058.31;;;13.57;77.22
73341;BME280;61578;52.002;5.468;2023-03-23T03:08:40;100056.09;;;13.53;77.51
73341;BME280;61578;52.002;5.468;2023-03-23T03:09:42;100063.25;;;13.52;76.90
73341;BME280;61578;52.002;5.468;2023-03-23T03:10:33;100050.47;;;13.56;77.04
73341;BME280;61578;52.002;5.468;2023-03-23T03:11:14;100053.13;;;13.56;77.35
73341;BME280;61578;52.002;5.468;2023-03-23T03:11:51;100052.28;;;13.55;77.08
73341;BME280;61578;52.002;5.468;2023-03-23T03:13:32;100047.25;;;13.52;76.81
73341;BME280;61578;52.002;5.468;2023-03-23T03:14:41;100061.00;;;13.67;76.73
73341;BME280;61578;52.002;5.468;2023-03-23T03:15:24;100035.59;;;13.53;76.60
73341;BME280;61578;52.002;5.468;2023-03-23T03:17:14;100048.09;;;13.62;76.04
73341;BME280;61578;52.002;5.468;2023-03-23T03:17:57;100055.13;;;13.63;76.36
73341;BME280;61578;52.002;5.468;2023-03-23T03:20:02;100057.50;;;13.67;75.77
73341;BME280;61578;52.002;5.468;2023-03-23T03:20:48;100056.09;;;13.62;76.50
73341;BME280;61578;52.002;5.468;2023-03-23T03:21:27;100051.88;;;13.60;76.01
73341;BME280;61578;52.002;5.468;2023-03-23T03:22:02;100048.94;;;13.63;76.30
73341;BME280;61578;52.002;5.468;2023-03-23T03:22:38;100054.41;;;13.61;76.05
73341;BME280;61578;52.002;5.468;2023-03-23T03:23:16;100049.94;;;13.62;76.06
73341;BME280;61578;52.002;5.468;2023-03-23T03:23:49;100049.47;;;13.57;75.80
73341;BME280;61578;52.002;5.468;2023-03-23T03:24:24;100048.09;;;13.62;75.35
73341;BME280;61578;52.002;5.468;2023-03-23T03:25:00;100045.28;;;13.64;75.36
73341;BME280;61578;52.002;5.468;2023-03-23T03:25:31;100048.66;;;13.66;75.13
73341;BME280;61578;52.002;5.468;2023-03-23T03:26:04;100058.09;;;13.70;75.50
73341;BME280;61578;52.002;5.468;2023-03-23T03:26:39;100045.59;;;13.71;74.99